sensor_id;sensor_type;location;lat;lon;timestamp;P1;durP1;ratioP1;P2;durP2;ratioP2
81064;SDS011;70572;40.692;-73.984;2023-06-14T00:01:36;11.48;;;4.30;;
81064;SDS011;70572;40.692;-73.984;2023-06-14T00:04:03;9.30;;;4.78;;
81064;SDS011;70572;40.692;-73.984;2023-06-14T00:06:34;10.00;;;4.32;;
81064;SDS011;70572;40.692;-73.984;2023-06-14T00:09:00;10.75;;;4.10;;
81064;SDS011;70572;40.692;-73.984;2023-06-14T00:11:27;8.82;;;4.38;;
81064;SDS011;70572;40.692;-73.984;2023-06-14T00:13:54;10.35;;;4.75;;
81064;SDS011;70572;40.692;-73.984;2023-06-14T00:16:21;9.20;;;4.88;;
81064;SDS011;70572;40.692;-73.984;2023-06-14T00:18:48;11.68;;;4.68;;
81064;SDS011;70572;40.692;-73.984;2023-06-14T00:21:14;9.48;;;4.85;;
81064;SDS011;70572;40.692;-73.984;2023-06-14T00:23:40;10.27;;;4.63;;
81064;SDS011;70572;40.692;-73.984;2023-06-14T00:26:07;11.60;;;5.10;;
81064;SDS011;70572;40.692;-73.984;2023-06-14T00:28:33;11.38;;;4.55;;
81064;SDS011;70572;40.692;-73.984;2023-06-14T00:30:59;9.77;;;4.25;;
81064;SDS011;70572;40.692;-73.984;2023-06-14T00:33:26;11.02;;;4.70;;
81064;SDS011;70572;40.692;-73.984;2023-06-14T00:35:52;9.95;;;4.47;;
81064;SDS011;70572;40.692;-73.984;2023-06-14T00:38:21;10.43;;;4.70;;
81064;SDS011;70572;40.692;-73.984;2023-06-14T00:40:48;8.55;;;4.13;;
81064;SDS011;70572;40.692;-73.984;2023-06-14T00:43:14;8.90;;;4.45;;
81064;SDS011;70572;40.692;-73.984;2023-06-14T00:45:40;10.00;;;4.38;;
81064;SDS011;70572;40.692;-73.984;2023-06-14T00:48:07;10.55;;;4.40;;
81064;SDS011;70572;40.692;-73.984;2023-06-14T00:50:34;8.85;;;4.20;;
81064;SDS011;70572;40.692;-73.984;2023-06-14T00:53:01;9.98;;;4.50;;
81064;SDS011;70572;40.692;-73.984;2023-06-14T00:55:28;9.93;;;4.75;;
81064;SDS011;70572;40.692;-73.984;2023-06-14T00:57:55;9.82;;;4.35;;
81064;SDS011;70572;40.692;-73.984;2023-06-14T01:00:22;10.30;;;4.93;;
81064;SDS011;70572;40.692;-73.984;2023-06-14T01:02:48;11.55;;;4.95;;
81064;SDS011;70572;40.692;-73.984;2023-06-14T01:05:15;10.63;;;4.43;;
81064;SDS011;70572;40.692;-73.984;2023-06-14T01:10:32;10.38;;;4.78;;
81064;SDS011;70572;40.692;-73.984;2023-06-14T01:13:12;10.80;;;4.45;;
81064;SDS011;70572;40.692;-73.984;2023-06-14T01:15:41;9.75;;;4.72;;
81064;SDS011;70572;40.692;-73.984;2023-06-14T01:18:08;8.65;;;4.15;;
81064;SDS011;70572;40.692;-73.984;2023-06-14T01:20:42;10.20;;;5.07;;
81064;SDS011;70572;40.692;-73.984;2023-06-14T01:23:10;8.57;;;4.22;;
81064;SDS011;70572;40.692;-73.984;2023-06-14T01:25:40;10.68;;;5.00;;
81064;SDS011;70572;40.692;-73.984;2023-06-14T01:28:09;10.68;;;5.05;;
81064;SDS011;70572;40.692;-73.984;2023-06-14T01:30:39;11.10;;;4.82;;
81064;SDS011;70572;40.692;-73.984;2023-06-14T01:33:11;8.50;;;4.15;;
81064;SDS011;70572;40.692;-73.984;2023-06-14T01:35:39;10.00;;;4.60;;
81064;SDS011;70572;40.692;-73.984;2023-06-14T01:38:06;9.65;;;4.70;;
81064;SDS011;70572;40.692;-73.984;2023-06-14T01:40:33;13.02;;;4.85;;
81064;SDS011;70572;40.692;-73.984;2023-06-14T01:43:00;9.40;;;4.70;;
81064;SDS011;70572;40.692;-73.984;2023-06-14T01:45:27;12.38;;;4.65;;
81064;SDS011;70572;40.692;-73.984;2023-06-14T01:47:54;11.32;;;5.63;;
81064;SDS011;70572;40.692;-73.984;2023-06-14T01:50:21;10.20;;;5.25;;
81064;SDS011;70572;40.692;-73.984;2023-06-14T01:52:47;11.68;;;4.90;;
81064;SDS011;70572;40.692;-73.984;2023-06-14T01:55:14;13.85;;;5.65;;
81064;SDS011;70572;40.692;-73.984;2023-06-14T01:57:42;9.88;;;4.60;;
81064;SDS011;70572;40.692;-73.984;2023-06-14T02:00:09;9.65;;;4.60;;
81064;SDS011;70572;40.692;-73.984;2023-06-14T02:02:38;9.52;;;4.65;;
81064;SDS011;70572;40.692;-73.984;2023-06-14T02:05:04;10.63;;;4.63;;
81064;SDS011;70572;40.692;-73.984;2023-06-14T02:07:31;10.13;;;4.60;;
81064;SDS011;70572;40.692;-73.984;2023-06-14T02:09:58;13.25;;;4.78;;
81064;SDS011;70572;40.692;-73.984;2023-06-14T02:12:24;10.30;;;4.68;;
81064;SDS011;70572;40.692;-73.984;2023-06-14T02:14:51;8.88;;;4.47;;
81064;SDS011;70572;40.692;-73.984;2023-06-14T02:17:17;11.07;;;4.45;;
81064;SDS011;70572;40.692;-73.984;2023-06-14T02:19:43;9.85;;;4.53;;
81064;SDS011;70572;40.692;-73.984;2023-06-14T02:22:10;11.77;;;4.80;;
81064;SDS011;70572;40.692;-73.984;2023-06-14T02:24:36;13.75;;;5.00;;
81064;SDS011;70572;40.692;-73.984;2023-06-14T02:27:02;9.30;;;4.20;;
81064;SDS011;70572;40.692;-73.984;2023-06-14T02:29:29;9.85;;;4.90;;
81064;SDS011;70572;40.692;-73.984;2023-06-14T02:31:55;12.35;;;4.43;;
81064;SDS011;70572;40.692;-73.984;2023-06-14T02:34:22;9.93;;;4.60;;
81064;SDS011;70572;40.692;-73.984;2023-06-14T02:36:48;12.07;;;5.57;;
81064;SDS011;70572;40.692;-73.984;2023-06-14T02:39:15;10.75;;;4.82;;
81064;SDS011;70572;40.692;-73.984;2023-06-14T02:41:41;10.32;;;4.60;;
81064;SDS011;70572;40.692;-73.984;2023-06-14T02:44:09;9.77;;;4.60;;
81064;SDS011;70572;40.692;-73.984;2023-06-14T02:46:37;12.80;;;5.22;;
81064;SDS011;70572;40.692;-73.984;2023-06-14T02:49:04;9.80;;;5.10;;
81064;SDS011;70572;40.692;-73.984;2023-06-14T02:51:33;12.95;;;5.30;;
81064;SDS011;70572;40.692;-73.984;2023-06-14T02:53:59;10.73;;;5.13;;
81064;SDS011;70572;40.692;-73.984;2023-06-14T02:56:26;8.60;;;4.13;;
81064;SDS011;70572;40.692;-73.984;2023-06-14T02:58:53;12.70;;;4.97;;
81064;SDS011;70572;40.692;-73.984;2023-06-14T03:01:19;12.45;;;5.50;;
81064;SDS011;70572;40.692;-73.984;2023-06-14T03:03:46;10.00;;;4.60;;
81064;SDS011;70572;40.692;-73.984;2023-06-14T03:06:13;9.43;;;4.82;;
81064;SDS011;70572;40.692;-73.984;2023-06-14T03:08:41;10.93;;;5.00;;
81064;SDS011;70572;40.692;-73.984;2023-06-14T03:11:09;11.05;;;5.13;;
81064;SDS011;70572;40.692;-73.984;2023-06-14T03:13:35;10.52;;;4.57;;
81064;SDS011;70572;40.692;-73.984;2023-06-14T03:16:03;10.63;;;5.13;;
81064;SDS011;70572;40.692;-73.984;2023-06-14T03:18:30;10.65;;;4.65;;
81064;SDS011;70572;40.692;-73.984;2023-06-14T03:21:03;11.45;;;4.85;;
81064;SDS011;70572;40.692;-73.984;2023-06-14T03:23:30;10.82;;;5.05;;
81064;SDS011;70572;40.692;-73.984;2023-06-14T03:25:56;10.80;;;5.07;;
81064;SDS011;70572;40.692;-73.984;2023-06-14T03:28:23;12.15;;;5.00;;
81064;SDS011;70572;40.692;-73.984;2023-06-14T03:30:49;10.32;;;5.13;;
81064;SDS011;70572;40.692;-73.984;2023-06-14T03:33:16;12.32;;;5.00;;
81064;SDS011;70572;40.692;-73.984;2023-06-14T03:35:43;11.15;;;4.70;;
81064;SDS011;70572;40.692;-73.984;2023-06-14T03:38:09;12.20;;;5.40;;
81064;SDS011;70572;40.692;-73.984;2023-06-14T03:40:36;10.85;;;5.07;;
81064;SDS011;70572;40.692;-73.984;2023-06-14T03:43:02;11.82;;;5.53;;
81064;SDS011;70572;40.692;-73.984;2023-06-14T03:45:28;12.45;;;5.10;;
81064;SDS011;70572;40.692;-73.984;2023-06-14T03:47:55;12.43;;;5.50;;
81064;SDS011;70572;40.692;-73.984;2023-06-14T03:50:21;11.60;;;5.10;;
81064;SDS011;70572;40.692;-73.984;2023-06-14T03:52:48;11.05;;;5.68;;
81064;SDS011;70572;40.692;-73.984;2023-06-14T03:55:15;10.52;;;4.90;;
81064;SDS011;70572;40.692;-73.984;2023-06-14T03:57:41;10.80;;;5.03;;
81064;SDS011;70572;40.692;-73.984;2023-06-14T04:00:08;10.45;;;4.97;;
81064;SDS011;70572;40.692;-73.984;2023-06-14T04:02:35;11.68;;;4.88;;
81064;SDS011;70572;40.692;-73.984;2023-06-14T04:05:02;10.48;;;5.47;;
81064;SDS011;70572;40.692;-73.984;2023-06-14T04:07:29;13.40;;;5.20;;
81064;SDS011;70572;40.692;-73.984;2023-06-14T04:09:55;12.85;;;5.25;;
81064;SDS011;70572;40.692;-73.984;2023-06-14T04:12:21;11.32;;;5.28;;
81064;SDS011;70572;40.692;-73.984;2023-06-14T04:14:48;10.80;;;5.70;;
81064;SDS011;70572;40.692;-73.984;2023-06-14T04:17:15;13.23;;;5.30;;
81064;SDS011;70572;40.692;-73.984;2023-06-14T04:19:41;11.20;;;5.15;;
81064;SDS011;70572;40.692;-73.984;2023-06-14T04:22:07;11.85;;;5.03;;
81064;SDS011;70572;40.692;-73.984;2023-06-14T04:24:35;11.48;;;5.00;;
81064;SDS011;70572;40.692;-73.984;2023-06-14T04:27:02;9.95;;;4.90;;
81064;SDS011;70572;40.692;-73.984;2023-06-14T04:29:28;10.95;;;5.28;;
81064;SDS011;70572;40.692;-73.984;2023-06-14T04:31:55;14.05;;;5.25;;
81064;SDS011;70572;40.692;-73.984;2023-06-14T04:34:27;13.73;;;5.30;;
81064;SDS011;70572;40.692;-73.984;2023-06-14T04:36:57;9.85;;;4.72;;
81064;SDS011;70572;40.692;-73.984;2023-06-14T04:39:25;12.05;;;5.45;;
81064;SDS011;70572;40.692;-73.984;2023-06-14T04:41:51;10.52;;;5.28;;
81064;SDS011;70572;40.692;-73.984;2023-06-14T04:44:22;10.65;;;5.65;;
81064;SDS011;70572;40.692;-73.984;2023-06-14T04:46:55;12.40;;;5.15;;
81064;SDS011;70572;40.692;-73.984;2023-06-14T04:49:21;12.20;;;5.70;;
81064;SDS011;70572;40.692;-73.984;2023-06-14T04:51:48;11.43;;;5.25;;
81064;SDS011;70572;40.692;-73.984;2023-06-14T04:54:22;12.05;;;5.93;;
81064;SDS011;70572;40.692;-73.984;2023-06-14T04:56:50;11.77;;;5.72;;
81064;SDS011;70572;40.692;-73.984;2023-06-14T04:59:18;15.00;;;6.35;;
81064;SDS011;70572;40.692;-73.984;2023-06-14T05:01:45;11.85;;;5.50;;
81064;SDS011;70572;40.692;-73.984;2023-06-14T05:04:17;12.45;;;6.03;;
81064;SDS011;70572;40.692;-73.984;2023-06-14T05:06:44;11.68;;;5.85;;
81064;SDS011;70572;40.692;-73.984;2023-06-14T05:09:11;10.98;;;5.03;;
81064;SDS011;70572;40.692;-73.984;2023-06-14T05:11:37;11.88;;;5.88;;
81064;SDS011;70572;40.692;-73.984;2023-06-14T05:14:03;10.38;;;5.43;;
81064;SDS011;70572;40.692;-73.984;2023-06-14T05:16:31;12.48;;;5.68;;
81064;SDS011;70572;40.692;-73.984;2023-06-14T05:18:57;12.15;;;6.40;;
81064;SDS011;70572;40.692;-73.984;2023-06-14T05:21:24;12.00;;;5.65;;
81064;SDS011;70572;40.692;-73.984;2023-06-14T05:23:50;11.05;;;6.13;;
81064;SDS011;70572;40.692;-73.984;2023-06-14T05:26:17;11.38;;;5.80;;
81064;SDS011;70572;40.692;-73.984;2023-06-14T05:28:43;11.13;;;5.68;;
81064;SDS011;70572;40.692;-73.984;2023-06-14T05:31:09;12.98;;;5.53;;
81064;SDS011;70572;40.692;-73.984;2023-06-14T05:33:36;10.43;;;5.43;;
81064;SDS011;70572;40.692;-73.984;2023-06-14T05:36:02;11.05;;;4.72;;
81064;SDS011;70572;40.692;-73.984;2023-06-14T05:38:28;12.70;;;5.80;;
81064;SDS011;70572;40.692;-73.984;2023-06-14T05:40:55;12.68;;;5.63;;
81064;SDS011;70572;40.692;-73.984;2023-06-14T05:43:21;12.57;;;6.32;;
81064;SDS011;70572;40.692;-73.984;2023-06-14T05:45:47;12.65;;;6.28;;
81064;SDS011;70572;40.692;-73.984;2023-06-14T05:48:14;13.50;;;5.70;;
81064;SDS011;70572;40.692;-73.984;2023-06-14T05:50:40;9.82;;;5.43;;
81064;SDS011;70572;40.692;-73.984;2023-06-14T05:53:06;13.05;;;6.35;;
81064;SDS011;70572;40.692;-73.984;2023-06-14T05:55:32;13.02;;;5.55;;
81064;SDS011;70572;40.692;-73.984;2023-06-14T05:57:59;12.43;;;6.03;;
81064;SDS011;70572;40.692;-73.984;2023-06-14T06:00:25;11.52;;;5.72;;
81064;SDS011;70572;40.692;-73.984;2023-06-14T06:02:52;12.13;;;5.65;;
81064;SDS011;70572;40.692;-73.984;2023-06-14T06:05:22;12.10;;;5.97;;
81064;SDS011;70572;40.692;-73.984;2023-06-14T06:07:48;12.88;;;5.88;;
81064;SDS011;70572;40.692;-73.984;2023-06-14T06:10:15;12.02;;;5.90;;
81064;SDS011;70572;40.692;-73.984;2023-06-14T06:12:41;12.93;;;5.93;;
81064;SDS011;70572;40.692;-73.984;2023-06-14T06:15:08;11.48;;;5.78;;
81064;SDS011;70572;40.692;-73.984;2023-06-14T06:17:38;12.20;;;5.45;;
81064;SDS011;70572;40.692;-73.984;2023-06-14T06:20:04;11.27;;;5.78;;
81064;SDS011;70572;40.692;-73.984;2023-06-14T06:22:33;12.05;;;5.60;;
81064;SDS011;70572;40.692;-73.984;2023-06-14T06:25:00;11.82;;;5.80;;
81064;SDS011;70572;40.692;-73.984;2023-06-14T06:27:26;10.68;;;5.80;;
81064;SDS011;70572;40.692;-73.984;2023-06-14T06:29:52;11.73;;;5.88;;
81064;SDS011;70572;40.692;-73.984;2023-06-14T06:32:19;13.43;;;5.55;;
81064;SDS011;70572;40.692;-73.984;2023-06-14T06:34:45;12.57;;;5.82;;
81064;SDS011;70572;40.692;-73.984;2023-06-14T06:37:11;11.50;;;5.53;;
81064;SDS011;70572;40.692;-73.984;2023-06-14T06:39:38;10.27;;;5.07;;
81064;SDS011;70572;40.692;-73.984;2023-06-14T06:42:04;10.88;;;5.40;;
81064;SDS011;70572;40.692;-73.984;2023-06-14T06:44:31;11.45;;;5.55;;
81064;SDS011;70572;40.692;-73.984;2023-06-14T06:46:58;12.00;;;5.95;;
81064;SDS011;70572;40.692;-73.984;2023-06-14T06:49:24;9.90;;;5.47;;
81064;SDS011;70572;40.692;-73.984;2023-06-14T06:52:01;12.00;;;5.50;;
81064;SDS011;70572;40.692;-73.984;2023-06-14T06:54:27;11.27;;;5.53;;
81064;SDS011;70572;40.692;-73.984;2023-06-14T06:56:54;11.73;;;5.55;;
81064;SDS011;70572;40.692;-73.984;2023-06-14T06:59:20;11.43;;;5.53;;
81064;SDS011;70572;40.692;-73.984;2023-06-14T07:01:46;13.13;;;6.28;;
81064;SDS011;70572;40.692;-73.984;2023-06-14T07:04:13;12.20;;;5.93;;
81064;SDS011;70572;40.692;-73.984;2023-06-14T07:06:39;10.63;;;5.32;;
81064;SDS011;70572;40.692;-73.984;2023-06-14T07:09:06;11.00;;;5.15;;
81064;SDS011;70572;40.692;-73.984;2023-06-14T07:11:37;10.77;;;5.30;;
81064;SDS011;70572;40.692;-73.984;2023-06-14T07:14:04;11.18;;;5.30;;
81064;SDS011;70572;40.692;-73.984;2023-06-14T07:16:30;12.32;;;5.65;;
81064;SDS011;70572;40.692;-73.984;2023-06-14T07:18:57;11.73;;;6.03;;
81064;SDS011;70572;40.692;-73.984;2023-06-14T07:21:23;14.10;;;6.32;;
81064;SDS011;70572;40.692;-73.984;2023-06-14T07:23:51;12.85;;;5.63;;
81064;SDS011;70572;40.692;-73.984;2023-06-14T07:26:17;13.30;;;6.10;;
81064;SDS011;70572;40.692;-73.984;2023-06-14T07:28:44;13.40;;;5.70;;
81064;SDS011;70572;40.692;-73.984;2023-06-14T07:31:10;14.00;;;5.70;;
81064;SDS011;70572;40.692;-73.984;2023-06-14T07:33:38;11.48;;;5.60;;
81064;SDS011;70572;40.692;-73.984;2023-06-14T07:36:04;10.38;;;4.82;;
81064;SDS011;70572;40.692;-73.984;2023-06-14T07:38:31;10.02;;;4.70;;
81064;SDS011;70572;40.692;-73.984;2023-06-14T07:40:57;11.77;;;5.40;;
81064;SDS011;70572;40.692;-73.984;2023-06-14T07:43:23;11.68;;;5.38;;
81064;SDS011;70572;40.692;-73.984;2023-06-14T07:45:50;13.27;;;5.35;;
81064;SDS011;70572;40.692;-73.984;2023-06-14T07:48:16;10.93;;;5.00;;
81064;SDS011;70572;40.692;-73.984;2023-06-14T07:50:43;10.13;;;5.38;;
81064;SDS011;70572;40.692;-73.984;2023-06-14T07:53:09;11.05;;;5.15;;
81064;SDS011;70572;40.692;-73.984;2023-06-14T07:55:35;13.55;;;5.18;;
81064;SDS011;70572;40.692;-73.984;2023-06-14T07:58:02;11.65;;;5.32;;
81064;SDS011;70572;40.692;-73.984;2023-06-14T08:00:29;10.10;;;4.75;;
81064;SDS011;70572;40.692;-73.984;2023-06-14T08:02:55;10.07;;;5.10;;
81064;SDS011;70572;40.692;-73.984;2023-06-14T08:05:24;11.77;;;5.65;;
81064;SDS011;70572;40.692;-73.984;2023-06-14T08:07:51;11.75;;;5.25;;
81064;SDS011;70572;40.692;-73.984;2023-06-14T08:10:17;14.85;;;5.45;;
81064;SDS011;70572;40.692;-73.984;2023-06-14T08:12:43;10.75;;;5.00;;
81064;SDS011;70572;40.692;-73.984;2023-06-14T08:15:10;10.20;;;4.68;;
81064;SDS011;70572;40.692;-73.984;2023-06-14T08:17:36;10.05;;;4.65;;
81064;SDS011;70572;40.692;-73.984;2023-06-14T08:20:03;11.05;;;4.90;;
81064;SDS011;70572;40.692;-73.984;2023-06-14T08:22:30;10.45;;;4.50;;
81064;SDS011;70572;40.692;-73.984;2023-06-14T08:25:02;11.80;;;5.10;;
81064;SDS011;70572;40.692;-73.984;2023-06-14T08:27:29;10.50;;;4.88;;
81064;SDS011;70572;40.692;-73.984;2023-06-14T08:29:55;12.15;;;5.13;;
81064;SDS011;70572;40.692;-73.984;2023-06-14T08:32:22;10.40;;;5.50;;
81064;SDS011;70572;40.692;-73.984;2023-06-14T08:34:48;10.45;;;4.97;;
81064;SDS011;70572;40.692;-73.984;2023-06-14T08:37:15;11.95;;;5.03;;
81064;SDS011;70572;40.692;-73.984;2023-06-14T08:39:42;9.68;;;5.00;;
81064;SDS011;70572;40.692;-73.984;2023-06-14T08:42:09;11.88;;;5.13;;
81064;SDS011;70572;40.692;-73.984;2023-06-14T08:44:35;11.38;;;5.32;;
81064;SDS011;70572;40.692;-73.984;2023-06-14T08:47:02;12.18;;;5.10;;
81064;SDS011;70572;40.692;-73.984;2023-06-14T08:49:28;10.95;;;4.40;;
81064;SDS011;70572;40.692;-73.984;2023-06-14T08:51:57;10.52;;;4.63;;
81064;SDS011;70572;40.692;-73.984;2023-06-14T08:54:25;8.95;;;4.63;;
81064;SDS011;70572;40.692;-73.984;2023-06-14T08:56:53;10.13;;;4.38;;
81064;SDS011;70572;40.692;-73.984;2023-06-14T08:59:25;11.48;;;5.20;;
81064;SDS011;70572;40.692;-73.984;2023-06-14T09:01:52;10.05;;;4.07;;
81064;SDS011;70572;40.692;-73.984;2023-06-14T09:04:20;10.77;;;4.40;;
81064;SDS011;70572;40.692;-73.984;2023-06-14T09:06:50;11.65;;;4.80;;
81064;SDS011;70572;40.692;-73.984;2023-06-14T09:09:21;10.63;;;4.30;;
81064;SDS011;70572;40.692;-73.984;2023-06-14T09:11:51;13.90;;;4.65;;
81064;SDS011;70572;40.692;-73.984;2023-06-14T09:14:21;10.55;;;5.15;;
81064;SDS011;70572;40.692;-73.984;2023-06-14T09:16:47;10.38;;;4.38;;
81064;SDS011;70572;40.692;-73.984;2023-06-14T09:19:20;10.70;;;4.50;;
81064;SDS011;70572;40.692;-73.984;2023-06-14T09:21:47;10.23;;;4.10;;
81064;SDS011;70572;40.692;-73.984;2023-06-14T09:24:14;10.02;;;4.57;;
81064;SDS011;70572;40.692;-73.984;2023-06-14T09:26:40;9.80;;;4.53;;
81064;SDS011;70572;40.692;-73.984;2023-06-14T09:29:07;9.48;;;4.78;;
81064;SDS011;70572;40.692;-73.984;2023-06-14T09:31:35;12.57;;;4.90;;
81064;SDS011;70572;40.692;-73.984;2023-06-14T09:34:02;9.95;;;4.68;;
81064;SDS011;70572;40.692;-73.984;2023-06-14T09:36:31;8.95;;;4.55;;
81064;SDS011;70572;40.692;-73.984;2023-06-14T09:39:03;10.57;;;4.82;;
81064;SDS011;70572;40.692;-73.984;2023-06-14T09:41:31;12.00;;;4.80;;
81064;SDS011;70572;40.692;-73.984;2023-06-14T09:44:02;9.55;;;4.47;;
81064;SDS011;70572;40.692;-73.984;2023-06-14T09:46:29;9.07;;;4.43;;
81064;SDS011;70572;40.692;-73.984;2023-06-14T09:48:58;9.90;;;4.50;;
81064;SDS011;70572;40.692;-73.984;2023-06-14T09:51:26;10.95;;;4.30;;
81064;SDS011;70572;40.692;-73.984;2023-06-14T09:53:53;11.23;;;5.07;;
81064;SDS011;70572;40.692;-73.984;2023-06-14T09:56:28;10.32;;;4.93;;
81064;SDS011;70572;40.692;-73.984;2023-06-14T09:58:58;9.10;;;4.43;;
81064;SDS011;70572;40.692;-73.984;2023-06-14T10:01:25;10.02;;;4.55;;
81064;SDS011;70572;40.692;-73.984;2023-06-14T10:04:05;8.13;;;3.72;;
81064;SDS011;70572;40.692;-73.984;2023-06-14T10:06:32;13.55;;;4.25;;
81064;SDS011;70572;40.692;-73.984;2023-06-14T10:09:02;9.35;;;3.80;;
81064;SDS011;70572;40.692;-73.984;2023-06-14T10:11:31;9.27;;;4.65;;
81064;SDS011;70572;40.692;-73.984;2023-06-14T10:13:57;9.68;;;4.10;;
81064;SDS011;70572;40.692;-73.984;2023-06-14T10:24:12;9.50;;;4.10;;
81064;SDS011;70572;40.692;-73.984;2023-06-14T10:26:53;10.27;;;3.88;;
81064;SDS011;70572;40.692;-73.984;2023-06-14T10:29:19;12.38;;;3.97;;
81064;SDS011;70572;40.692;-73.984;2023-06-14T10:31:47;9.75;;;4.18;;
81064;SDS011;70572;40.692;-73.984;2023-06-14T10:37:00;8.35;;;4.07;;
81064;SDS011;70572;40.692;-73.984;2023-06-14T10:39:27;9.77;;;3.97;;
81064;SDS011;70572;40.692;-73.984;2023-06-14T10:41:54;8.77;;;3.92;;
81064;SDS011;70572;40.692;-73.984;2023-06-14T10:46:54;13.25;;;4.43;;
81064;SDS011;70572;40.692;-73.984;2023-06-14T10:49:36;12.40;;;4.47;;
81064;SDS011;70572;40.692;-73.984;2023-06-14T10:52:09;10.38;;;4.35;;
81064;SDS011;70572;40.692;-73.984;2023-06-14T10:55:27;9.90;;;4.75;;
81064;SDS011;70572;40.692;-73.984;2023-06-14T10:57:29;9.98;;;4.40;;
81064;SDS011;70572;40.692;-73.984;2023-06-14T11:00:00;9.27;;;4.28;;
81064;SDS011;70572;40.692;-73.984;2023-06-14T11:05:10;8.55;;;3.78;;
81064;SDS011;70572;40.692;-73.984;2023-06-14T11:12:45;11.40;;;4.30;;
81064;SDS011;70572;40.692;-73.984;2023-06-14T11:15:13;11.10;;;4.80;;
81064;SDS011;70572;40.692;-73.984;2023-06-14T11:17:49;12.50;;;4.25;;
81064;SDS011;70572;40.692;-73.984;2023-06-14T11:20:16;9.75;;;3.88;;
81064;SDS011;70572;40.692;-73.984;2023-06-14T11:22:42;9.60;;;4.40;;
81064;SDS011;70572;40.692;-73.984;2023-06-14T11:25:09;10.82;;;4.38;;
81064;SDS011;70572;40.692;-73.984;2023-06-14T11:27:35;10.52;;;4.15;;
81064;SDS011;70572;40.692;-73.984;2023-06-14T11:30:02;9.48;;;4.40;;
81064;SDS011;70572;40.692;-73.984;2023-06-14T11:32:30;9.77;;;3.38;;
81064;SDS011;70572;40.692;-73.984;2023-06-14T11:34:57;10.40;;;3.88;;
81064;SDS011;70572;40.692;-73.984;2023-06-14T11:37:27;13.05;;;4.00;;
81064;SDS011;70572;40.692;-73.984;2023-06-14T11:39:58;9.65;;;3.75;;
81064;SDS011;70572;40.692;-73.984;2023-06-14T11:42:27;8.93;;;3.90;;
81064;SDS011;70572;40.692;-73.984;2023-06-14T11:44:54;11.85;;;4.18;;
81064;SDS011;70572;40.692;-73.984;2023-06-14T11:47:21;10.05;;;4.60;;
81064;SDS011;70572;40.692;-73.984;2023-06-14T11:49:47;12.30;;;4.53;;
81064;SDS011;70572;40.692;-73.984;2023-06-14T11:52:14;10.57;;;4.03;;
81064;SDS011;70572;40.692;-73.984;2023-06-14T11:54:40;10.88;;;3.90;;
81064;SDS011;70572;40.692;-73.984;2023-06-14T11:57:07;11.57;;;4.00;;
81064;SDS011;70572;40.692;-73.984;2023-06-14T11:59:40;11.10;;;4.20;;
81064;SDS011;70572;40.692;-73.984;2023-06-14T12:02:07;9.68;;;4.30;;
81064;SDS011;70572;40.692;-73.984;2023-06-14T12:04:33;10.32;;;4.18;;
81064;SDS011;70572;40.692;-73.984;2023-06-14T12:07:13;8.52;;;3.92;;
81064;SDS011;70572;40.692;-73.984;2023-06-14T12:12:22;9.07;;;4.20;;
81064;SDS011;70572;40.692;-73.984;2023-06-14T12:14:50;8.60;;;4.03;;
81064;SDS011;70572;40.692;-73.984;2023-06-14T12:17:17;15.00;;;4.03;;
81064;SDS011;70572;40.692;-73.984;2023-06-14T12:19:44;9.05;;;3.88;;
81064;SDS011;70572;40.692;-73.984;2023-06-14T12:22:11;10.82;;;4.32;;
81064;SDS011;70572;40.692;-73.984;2023-06-14T12:24:37;8.68;;;3.63;;
81064;SDS011;70572;40.692;-73.984;2023-06-14T12:27:04;9.73;;;4.60;;
81064;SDS011;70572;40.692;-73.984;2023-06-14T12:29:31;9.85;;;3.65;;
81064;SDS011;70572;40.692;-73.984;2023-06-14T12:31:58;10.40;;;4.65;;
81064;SDS011;70572;40.692;-73.984;2023-06-14T12:34:24;10.13;;;4.32;;
81064;SDS011;70572;40.692;-73.984;2023-06-14T12:36:52;9.95;;;4.28;;
81064;SDS011;70572;40.692;-73.984;2023-06-14T12:39:19;10.35;;;3.95;;
81064;SDS011;70572;40.692;-73.984;2023-06-14T12:41:46;11.20;;;4.43;;
81064;SDS011;70572;40.692;-73.984;2023-06-14T12:44:14;9.63;;;4.45;;
81064;SDS011;70572;40.692;-73.984;2023-06-14T12:46:41;11.30;;;4.35;;
81064;SDS011;70572;40.692;-73.984;2023-06-14T12:49:09;10.10;;;4.63;;
81064;SDS011;70572;40.692;-73.984;2023-06-14T12:51:36;9.82;;;4.63;;
81064;SDS011;70572;40.692;-73.984;2023-06-14T12:54:02;10.57;;;4.68;;
81064;SDS011;70572;40.692;-73.984;2023-06-14T12:56:29;10.32;;;4.25;;
81064;SDS011;70572;40.692;-73.984;2023-06-14T12:58:55;11.73;;;4.45;;
81064;SDS011;70572;40.692;-73.984;2023-06-14T13:01:21;7.90;;;4.20;;
81064;SDS011;70572;40.692;-73.984;2023-06-14T13:03:48;14.95;;;4.43;;
81064;SDS011;70572;40.692;-73.984;2023-06-14T13:06:16;10.15;;;4.57;;
81064;SDS011;70572;40.692;-73.984;2023-06-14T13:08:43;9.82;;;4.47;;
81064;SDS011;70572;40.692;-73.984;2023-06-14T13:11:09;10.27;;;4.60;;
81064;SDS011;70572;40.692;-73.984;2023-06-14T13:13:36;10.75;;;4.78;;
81064;SDS011;70572;40.692;-73.984;2023-06-14T13:16:02;9.20;;;4.32;;
81064;SDS011;70572;40.692;-73.984;2023-06-14T13:18:28;13.63;;;5.57;;
81064;SDS011;70572;40.692;-73.984;2023-06-14T13:20:55;11.90;;;5.07;;
81064;SDS011;70572;40.692;-73.984;2023-06-14T13:23:21;12.88;;;5.32;;
81064;SDS011;70572;40.692;-73.984;2023-06-14T13:25:47;10.32;;;4.63;;
81064;SDS011;70572;40.692;-73.984;2023-06-14T13:28:16;10.20;;;4.45;;
81064;SDS011;70572;40.692;-73.984;2023-06-14T13:30:42;11.63;;;4.93;;
81064;SDS011;70572;40.692;-73.984;2023-06-14T13:33:09;9.35;;;4.13;;
81064;SDS011;70572;40.692;-73.984;2023-06-14T13:35:35;10.05;;;4.70;;
81064;SDS011;70572;40.692;-73.984;2023-06-14T13:38:01;9.40;;;4.53;;
81064;SDS011;70572;40.692;-73.984;2023-06-14T13:40:28;9.70;;;4.53;;
81064;SDS011;70572;40.692;-73.984;2023-06-14T13:42:54;12.98;;;5.13;;
81064;SDS011;70572;40.692;-73.984;2023-06-14T13:45:20;12.20;;;5.45;;
81064;SDS011;70572;40.692;-73.984;2023-06-14T13:47:47;9.68;;;4.45;;
81064;SDS011;70572;40.692;-73.984;2023-06-14T13:50:13;10.13;;;4.95;;
81064;SDS011;70572;40.692;-73.984;2023-06-14T13:52:41;9.93;;;4.75;;
81064;SDS011;70572;40.692;-73.984;2023-06-14T13:55:07;15.57;;;4.72;;
81064;SDS011;70572;40.692;-73.984;2023-06-14T13:57:34;11.20;;;4.72;;
81064;SDS011;70572;40.692;-73.984;2023-06-14T14:00:01;10.10;;;4.72;;
81064;SDS011;70572;40.692;-73.984;2023-06-14T14:02:28;9.80;;;4.43;;
81064;SDS011;70572;40.692;-73.984;2023-06-14T14:04:55;11.13;;;5.30;;
81064;SDS011;70572;40.692;-73.984;2023-06-14T14:07:22;10.10;;;5.03;;
81064;SDS011;70572;40.692;-73.984;2023-06-14T14:09:49;11.55;;;4.80;;
81064;SDS011;70572;40.692;-73.984;2023-06-14T14:12:15;11.73;;;4.60;;
81064;SDS011;70572;40.692;-73.984;2023-06-14T14:14:42;13.75;;;5.07;;
81064;SDS011;70572;40.692;-73.984;2023-06-14T14:17:08;11.25;;;5.43;;
81064;SDS011;70572;40.692;-73.984;2023-06-14T14:19:34;10.23;;;4.60;;
81064;SDS011;70572;40.692;-73.984;2023-06-14T14:22:01;10.45;;;5.45;;
81064;SDS011;70572;40.692;-73.984;2023-06-14T14:24:28;11.30;;;4.95;;
81064;SDS011;70572;40.692;-73.984;2023-06-14T14:26:54;10.98;;;4.70;;
81064;SDS011;70572;40.692;-73.984;2023-06-14T14:29:24;12.82;;;5.70;;
81064;SDS011;70572;40.692;-73.984;2023-06-14T14:31:54;11.15;;;4.43;;
81064;SDS011;70572;40.692;-73.984;2023-06-14T14:34:21;14.82;;;4.88;;
81064;SDS011;70572;40.692;-73.984;2023-06-14T14:36:48;11.75;;;5.10;;
81064;SDS011;70572;40.692;-73.984;2023-06-14T14:39:14;12.43;;;5.38;;